TimeEEST,TemperatureF,Dew PointF,Humidity,Sea Level PressureIn,VisibilityMPH,Wind Direction,Wind SpeedMPH,Gust SpeedMPH,PrecipitationIn,Events,Conditions,WindDirDegrees,DateUTC
12:50 AM,48.2,32.0,54,30.33,-9999.0,Variable,1.2,-,N/A,,Clear,0,2012-10-02 21:50:00
1:50 AM,50.0,32.0,50,30.33,-9999.0,WSW,3.5,-,N/A,,Clear,250,2012-10-02 22:50:00
3:00 AM,46,34,51,,6,Calm,Calm,,,,,,2012-10-03 00:00:00
3:50 AM,44.6,32.0,61,30.33,-9999.0,North,1.2,-,N/A,,Clear,360,2012-10-03 00:50:00
4:50 AM,44.6,32.0,61,30.33,-9999.0,NW,3.5,-,N/A,,Clear,310,2012-10-03 01:50:00
5:50 AM,42.8,32.0,66,30.33,-9999.0,Calm,Calm,-,N/A,,Clear,0,2012-10-03 02:50:00
6:50 AM,42.8,33.8,70,30.33,-9999.0,WNW,2.3,-,N/A,,Clear,290,2012-10-03 03:50:00
7:50 AM,51.8,35.6,54,30.33,-9999.0,Calm,Calm,-,N/A,,Clear,0,2012-10-03 04:50:00
8:50 AM,59.0,37.4,45,30.33,6.2,Calm,Calm,-,N/A,,Partly Cloudy,0,2012-10-03 05:50:00
9:00 AM,59,37,32,,6,Calm,Calm,,,,Scattered Clouds,,2012-10-03 06:00:00
9:50 AM,62.6,39.2,42,30.33,-9999.0,Variable,1.2,-,N/A,,Clear,0,2012-10-03 06:50:00
10:50 AM,68.0,35.6,30,30.30,-9999.0,Variable,1.2,-,N/A,,Clear,0,2012-10-03 07:50:00
11:50 AM,71.6,37.4,29,30.27,6.2,Variable,1.2,-,N/A,,Partly Cloudy,0,2012-10-03 08:50:00
12:50 PM,77.0,37.4,24,30.24,6.2,Variable,1.2,-,N/A,,Scattered Clouds,0,2012-10-03 09:50:00
1:50 PM,73.4,35.6,25,30.21,6.2,SSW,17.3,-,N/A,,Scattered Clouds,210,2012-10-03 10:50:00
2:50 PM,69.8,35.6,28,30.24,6.2,NNW,20.7,39.1,N/A,,Mostly Cloudy,330,2012-10-03 11:50:00
3:00 PM,70,36,18,,6,NNW,20.7,,,,Mostly Cloudy,330,2012-10-03 12:00:00
3:50 PM,68.0,37.4,33,30.24,6.2,Variable,2.3,-,N/A,,Mostly Cloudy,0,2012-10-03 12:50:00
5:50 PM,60.8,41.0,48,30.21,6.2,SE,13.8,-,N/A,,Mostly Cloudy,130,2012-10-03 14:50:00
7:50 PM,55.4,42.8,63,30.24,6.2,SE,5.8,-,N/A,,Mostly Cloudy,140,2012-10-03 16:50:00
8:50 PM,55.4,42.8,63,30.27,6.2,Variable,2.3,-,N/A,,Scattered Clouds,0,2012-10-03 17:50:00
9:00 PM,55,43,55,,6,North,2.3,,,,Partly Cloudy,10,2012-10-03 18:00:00
9:50 PM,55.4,44.6,67,30.27,6.2,WSW,6.9,-,N/A,,Scattered Clouds,240,2012-10-03 18:50:00
10:50 PM,53.6,44.6,72,30.24,6.2,South,3.5,-,N/A,,Scattered Clouds,180,2012-10-03 19:50:00
11:50 PM,53.6,42.8,67,30.24,6.2,South,2.3,-,N/A,,Scattered Clouds,190,2012-10-03 20:50:00